Time;durP1;ratioP1;P1;durP2;ratioP2;P2;SDS_P1;SDS_P2;PMS_P1;PMS_P2;Temp;Humidity;BMP_temperature;BMP_pressure;BME280_temperature;BME280_humidity;BME280_pressure;Samples;Min_cycle;Max_cycle;Signal;HPM_P1;HPM_P2
2022/07/31 00:02:10;;;;;;;0.70;0.70;;;22.80;99.90;;;;;;5050699;28;20240;-63
2022/07/31 00:04:37;;;;;;;0.75;0.75;;;22.70;99.90;;;;;;5052997;28;20749;-63
2022/07/31 00:07:05;;;;;;;0.60;0.60;;;22.70;99.90;;;;;;5048582;28;20291;-63
2022/07/31 00:09:32;;;;;;;0.60;0.60;;;22.70;99.90;;;;;;5050082;28;20335;-61
2022/07/31 00:11:59;;;;;;;0.40;0.40;;;22.70;99.90;;;;;;5048252;28;20276;-64
2022/07/31 00:14:26;;;;;;;0.80;0.80;;;22.60;99.90;;;;;;5049775;28;20283;-61
2022/07/31 00:16:52;;;;;;;0.50;0.50;;;22.50;99.90;;;;;;5052365;28;20285;-62
2022/07/31 00:19:19;;;;;;;0.55;0.55;;;22.40;99.90;;;;;;5048765;28;20717;-60
2022/07/31 00:21:46;;;;;;;0.88;0.70;;;22.40;99.90;;;;;;5051584;28;20295;-63
2022/07/31 00:24:15;;;;;;;0.60;0.60;;;22.40;99.90;;;;;;5047781;28;20656;-63
2022/07/31 00:26:41;;;;;;;0.55;0.55;;;22.30;99.90;;;;;;5050943;28;20603;-61
2022/07/31 00:29:09;;;;;;;0.60;0.60;;;22.30;99.90;;;;;;5045952;28;20235;-60
2022/07/31 00:31:36;;;;;;;0.68;0.68;;;22.20;99.90;;;;;;5050182;28;20224;-63
2022/07/31 00:34:03;;;;;;;0.52;0.52;;;22.20;99.90;;;;;;5052840;28;20235;-63
2022/07/31 00:36:30;;;;;;;0.60;0.60;;;22.10;99.90;;;;;;5044044;28;20266;-60
2022/07/31 00:38:57;;;;;;;1.00;0.70;;;22.10;99.90;;;;;;5052651;28;20228;-61
2022/07/31 00:41:25;;;;;;;0.70;0.70;;;22.10;99.90;;;;;;5048324;28;20647;-61
2022/07/31 00:43:52;;;;;;;0.40;0.40;;;22.00;99.90;;;;;;5040584;28;20678;-62
2022/07/31 00:46:19;;;;;;;0.60;0.60;;;22.10;99.90;;;;;;5051595;28;20195;-61
2022/07/31 00:48:46;;;;;;;0.70;0.70;;;22.10;99.90;;;;;;5034688;28;20319;-61
2022/07/31 00:51:13;;;;;;;0.93;0.60;;;22.10;99.90;;;;;;5043383;28;20291;-61
2022/07/31 00:53:40;;;;;;;0.57;0.57;;;22.00;99.90;;;;;;5046068;28;20205;-62
2022/07/31 00:56:07;;;;;;;0.55;0.55;;;21.90;99.90;;;;;;5044115;28;20280;-61
2022/07/31 00:58:35;;;;;;;0.70;0.70;;;21.90;99.90;;;;;;5051010;28;20318;-61
2022/07/31 01:01:02;;;;;;;0.52;0.52;;;21.80;99.90;;;;;;5052845;28;20574;-61
2022/07/31 01:03:29;;;;;;;0.50;0.50;;;21.70;99.90;;;;;;5045779;28;20765;-61
2022/07/31 01:05:55;;;;;;;0.70;0.70;;;21.70;99.90;;;;;;5052552;28;20288;-63
2022/07/31 01:08:22;;;;;;;0.70;0.70;;;21.60;99.90;;;;;;5049737;28;20288;-61
2022/07/31 01:10:56;;;;;;;0.60;0.60;;;21.50;99.90;;;;;;5060839;28;20239;-61
2022/07/31 01:13:31;;;;;;;0.55;0.55;;;21.40;99.90;;;;;;5045971;28;20386;-62
2022/07/31 01:16:01;;;;;;;0.70;0.70;;;21.40;99.90;;;;;;5048515;28;20200;-62
2022/07/31 01:18:30;;;;;;;0.68;0.68;;;21.30;99.90;;;;;;5053275;28;20595;-62
2022/07/31 01:21:03;;;;;;;1.40;0.65;;;21.30;99.90;;;;;;5047937;28;20239;-62
2022/07/31 01:24:07;;;;;;;0.80;0.80;;;21.40;99.90;;;;;;5060054;28;20290;-62
2022/07/31 01:26:43;;;;;;;0.70;0.70;;;21.40;99.90;;;;;;4990489;28;20285;-62
2022/07/31 01:29:22;;;;;;;0.47;0.47;;;21.30;99.90;;;;;;4997833;28;20316;-61
2022/07/31 01:32:00;;;;;;;0.50;0.50;;;21.30;99.90;;;;;;4995467;28;20210;-60
2022/07/31 01:34:34;;;;;;;0.60;0.60;;;21.30;99.90;;;;;;5000437;28;20217;-61
2022/07/31 01:37:06;;;;;;;0.70;0.70;;;21.30;99.90;;;;;;5000019;28;20220;-62
2022/07/31 01:39:35;;;;;;;0.68;0.68;;;21.30;99.90;;;;;;5008991;28;20249;-61
2022/07/31 01:42:05;;;;;;;0.60;0.60;;;21.30;99.90;;;;;;5008477;28;20298;-61
2022/07/31 01:44:43;;;;;;;0.70;0.70;;;21.20;99.90;;;;;;5014119;28;20195;-62
2022/07/31 01:47:12;;;;;;;0.80;0.80;;;21.10;99.90;;;;;;4991428;28;20680;-61
2022/07/31 01:49:41;;;;;;;0.75;0.75;;;21.10;99.90;;;;;;4996543;28;20293;-64
2022/07/31 01:52:09;;;;;;;0.80;0.80;;;21.00;99.90;;;;;;4995355;28;20210;-64
2022/07/31 01:54:37;;;;;;;0.60;0.60;;;21.00;99.90;;;;;;4995273;28;20210;-63
2022/07/31 01:57:06;;;;;;;0.70;0.70;;;20.90;99.90;;;;;;4995349;28;20270;-63
2022/07/31 01:59:37;;;;;;;0.70;0.70;;;20.90;99.90;;;;;;4995605;28;20377;-62
2022/07/31 02:02:04;;;;;;;0.80;0.80;;;20.80;99.90;;;;;;5017903;28;20204;-62
2022/07/31 02:04:32;;;;;;;0.60;0.60;;;20.70;99.90;;;;;;5056101;28;20719;-61
2022/07/31 02:07:02;;;;;;;0.70;0.70;;;20.60;99.90;;;;;;5057053;28;20258;-63
2022/07/31 02:09:31;;;;;;;0.75;0.75;;;20.60;99.90;;;;;;5058288;28;20224;-63
2022/07/31 02:12:00;;;;;;;0.75;0.73;;;20.60;99.90;;;;;;5057264;28;20314;-62
2022/07/31 02:14:27;;;;;;;0.70;0.70;;;20.70;99.90;;;;;;5056752;28;20291;-61
2022/07/31 02:16:58;;;;;;;0.75;0.70;;;20.70;99.90;;;;;;5056335;28;20204;-62
2022/07/31 02:19:26;;;;;;;0.70;0.70;;;20.60;99.90;;;;;;5055487;28;20251;-61
2022/07/31 02:21:54;;;;;;;0.55;0.55;;;20.70;99.90;;;;;;5047151;28;20239;-62
2022/07/31 02:24:21;;;;;;;0.50;0.50;;;20.60;99.90;;;;;;5055779;28;20204;-63
2022/07/31 02:26:49;;;;;;;0.77;0.77;;;20.60;99.90;;;;;;5054857;28;20226;-61
2022/07/31 02:29:18;;;;;;;0.73;0.73;;;20.70;99.90;;;;;;5055927;28;20664;-63
2022/07/31 02:31:47;;;;;;;0.70;0.65;;;20.70;99.90;;;;;;5052619;28;20277;-59
2022/07/31 02:34:17;;;;;;;0.60;0.60;;;20.70;99.90;;;;;;5050755;28;20212;-63
2022/07/31 02:36:45;;;;;;;0.90;0.90;;;20.70;99.90;;;;;;5055243;28;20670;-63
2022/07/31 02:39:15;;;;;;;0.60;0.60;;;20.70;99.90;;;;;;5054479;28;20714;-64
2022/07/31 02:41:42;;;;;;;0.60;0.60;;;20.60;99.90;;;;;;5053993;28;20655;-63
2022/07/31 02:44:12;;;;;;;0.80;0.80;;;20.60;99.90;;;;;;5053889;28;20231;-63
2022/07/31 02:46:39;;;;;;;0.63;0.63;;;20.60;99.90;;;;;;5053831;28;20287;-64
2022/07/31 02:49:08;;;;;;;0.45;0.45;;;20.60;99.90;;;;;;5053434;28;20326;-63
2022/07/31 02:51:36;;;;;;;0.55;0.55;;;20.60;99.90;;;;;;5053962;28;20227;-62
2022/07/31 02:54:04;;;;;;;2.25;0.70;;;20.60;99.90;;;;;;5053424;28;20225;-63
2022/07/31 02:56:32;;;;;;;0.63;0.63;;;20.60;99.90;;;;;;5061869;28;20250;-63
2022/07/31 02:58:59;;;;;;;0.75;0.75;;;20.60;99.90;;;;;;5053512;28;20311;-61
2022/07/31 03:01:26;;;;;;;0.60;0.60;;;20.50;99.90;;;;;;5051566;28;20736;-62
2022/07/31 03:03:53;;;;;;;0.68;0.68;;;20.50;99.90;;;;;;5042370;28;20212;-62
2022/07/31 03:06:20;;;;;;;0.65;0.65;;;20.50;99.90;;;;;;5045162;28;20910;-61
2022/07/31 03:08:48;;;;;;;0.65;0.65;;;20.40;99.90;;;;;;5049824;28;20308;-61
2022/07/31 03:11:17;;;;;;;0.50;0.50;;;20.30;99.90;;;;;;5046640;28;20230;-63
2022/07/31 03:13:45;;;;;;;0.57;0.57;;;20.20;99.90;;;;;;5053243;28;20603;-61
2022/07/31 03:16:13;;;;;;;0.60;0.60;;;20.10;99.90;;;;;;5053624;28;20203;-61
2022/07/31 03:18:41;;;;;;;0.75;0.75;;;20.10;99.90;;;;;;5055320;28;20235;-62
2022/07/31 03:21:11;;;;;;;0.70;0.70;;;20.00;99.90;;;;;;5065979;28;20290;-62
2022/07/31 03:23:38;;;;;;;0.50;0.50;;;19.90;99.90;;;;;;5056198;28;20208;-63
2022/07/31 03:26:07;;;;;;;0.63;0.63;;;19.80;99.90;;;;;;5053300;28;20204;-64
2022/07/31 03:28:34;;;;;;;0.40;0.40;;;19.70;99.90;;;;;;5053198;28;20223;-64
2022/07/31 03:31:02;;;;;;;0.60;0.60;;;19.80;99.90;;;;;;5053201;28;20319;-64
2022/07/31 03:33:28;;;;;;;0.60;0.60;;;19.70;99.90;;;;;;5052885;28;20712;-60
2022/07/31 03:35:56;;;;;;;0.50;0.50;;;19.80;99.90;;;;;;5052918;28;20287;-63
2022/07/31 03:38:23;;;;;;;0.90;0.50;;;19.80;99.90;;;;;;5054668;28;20658;-63
2022/07/31 03:40:50;;;;;;;0.70;0.70;;;19.80;99.90;;;;;;5053342;28;20294;-62
2022/07/31 03:43:20;;;;;;;0.40;0.40;;;19.80;99.90;;;;;;5047091;28;20291;-62
2022/07/31 03:45:48;;;;;;;0.50;0.50;;;19.80;99.90;;;;;;5052988;28;20291;-62
2022/07/31 03:48:15;;;;;;;0.50;0.50;;;19.80;99.90;;;;;;5052661;28;20226;-63
2022/07/31 03:50:43;;;;;;;0.60;0.60;;;19.80;99.90;;;;;;5052883;28;20230;-62
2022/07/31 03:53:12;;;;;;;0.68;0.68;;;19.80;99.90;;;;;;5052474;28;20243;-63
2022/07/31 03:55:41;;;;;;;0.57;0.57;;;19.80;99.90;;;;;;5052816;28;20262;-63
2022/07/31 03:58:08;;;;;;;0.60;0.60;;;19.80;99.90;;;;;;5055435;28;20236;-62
2022/07/31 04:00:37;;;;;;;0.50;0.50;;;19.80;99.90;;;;;;5055405;28;20231;-62
2022/07/31 04:03:08;;;;;;;0.57;0.57;;;19.80;99.90;;;;;;5054693;28;20208;-63
2022/07/31 04:05:35;;;;;;;0.65;0.60;;;19.70;99.90;;;;;;5053082;28;20200;-63
2022/07/31 04:08:02;;;;;;;0.60;0.60;;;19.60;99.90;;;;;;5052812;28;20291;-64
2022/07/31 04:10:29;;;;;;;0.70;0.70;;;19.50;99.90;;;;;;5051900;28;20338;-64
2022/07/31 04:12:56;;;;;;;1.00;0.50;;;19.50;99.90;;;;;;5056867;28;20230;-62
2022/07/31 04:15:23;;;;;;;0.60;0.60;;;19.50;99.90;;;;;;5051993;28;20580;-63
2022/07/31 04:17:51;;;;;;;0.80;0.80;;;19.50;99.90;;;;;;5053292;28;20219;-62
2022/07/31 04:20:20;;;;;;;0.60;0.60;;;19.50;99.90;;;;;;5053167;28;20255;-62
2022/07/31 04:22:47;;;;;;;0.70;0.68;;;19.50;99.90;;;;;;5052601;28;20203;-64
2022/07/31 04:25:14;;;;;;;0.70;0.70;;;19.50;99.90;;;;;;5053038;28;20311;-62
2022/07/31 04:27:41;;;;;;;0.50;0.50;;;19.50;99.90;;;;;;5051840;28;20258;-62
2022/07/31 04:30:09;;;;;;;1.85;0.60;;;19.50;99.90;;;;;;5052153;28;20328;-63
2022/07/31 04:32:36;;;;;;;0.55;0.55;;;19.50;99.90;;;;;;5052120;28;20259;-63
2022/07/31 04:35:06;;;;;;;0.70;0.70;;;19.50;99.90;;;;;;5052245;28;20301;-62
2022/07/31 04:37:33;;;;;;;0.70;0.70;;;19.60;99.90;;;;;;5052402;28;20713;-62
2022/07/31 04:40:00;;;;;;;0.52;0.52;;;19.60;99.90;;;;;;5059579;28;20232;-62
2022/07/31 04:42:27;;;;;;;0.70;0.70;;;19.60;99.90;;;;;;5051948;28;20204;-60
2022/07/31 04:44:54;;;;;;;0.60;0.60;;;19.70;99.90;;;;;;5052037;28;20200;-64
2022/07/31 04:47:21;;;;;;;0.50;0.50;;;19.70;99.90;;;;;;5052007;28;20674;-63
2022/07/31 04:49:48;;;;;;;0.73;0.73;;;19.70;99.90;;;;;;5051496;28;20314;-62
2022/07/31 04:52:16;;;;;;;0.50;0.50;;;19.80;99.90;;;;;;5051823;28;20975;-63
2022/07/31 04:54:43;;;;;;;0.50;0.50;;;19.90;99.90;;;;;;5056494;28;20239;-62
2022/07/31 04:57:10;;;;;;;0.50;0.50;;;19.90;99.90;;;;;;5052421;28;20203;-63
2022/07/31 04:59:37;;;;;;;0.65;0.65;;;19.90;99.90;;;;;;5051657;28;20262;-62
2022/07/31 05:02:03;;;;;;;2.60;0.82;;;20.00;99.90;;;;;;5051884;28;20758;-61
2022/07/31 05:04:30;;;;;;;0.70;0.70;;;20.00;99.90;;;;;;5051563;28;20677;-62
2022/07/31 05:06:57;;;;;;;0.55;0.55;;;20.10;99.90;;;;;;5051977;28;20281;-61
2022/07/31 05:09:29;;;;;;;0.50;0.50;;;20.10;99.90;;;;;;5051918;28;20307;-61
2022/07/31 05:11:55;;;;;;;0.60;0.60;;;20.10;99.90;;;;;;5049109;28;20306;-62
2022/07/31 05:14:22;;;;;;;0.50;0.50;;;20.10;99.90;;;;;;5052157;28;20200;-64
2022/07/31 05:16:50;;;;;;;0.60;0.60;;;20.20;99.90;;;;;;5052145;28;20214;-60
2022/07/31 05:19:17;;;;;;;0.65;0.65;;;20.10;99.90;;;;;;5052211;28;20229;-63
2022/07/31 05:21:44;;;;;;;0.60;0.60;;;20.10;99.90;;;;;;5054225;28;20200;-62
2022/07/31 05:24:11;;;;;;;1.15;0.60;;;20.00;99.90;;;;;;5059765;28;20208;-61
2022/07/31 05:26:39;;;;;;;0.70;0.70;;;20.00;99.90;;;;;;5055966;28;20692;-61
2022/07/31 05:29:06;;;;;;;1.52;0.80;;;20.10;99.90;;;;;;5055481;28;20311;-62
2022/07/31 05:31:33;;;;;;;0.60;0.60;;;20.20;99.90;;;;;;5055456;28;20302;-61
2022/07/31 05:34:00;;;;;;;0.80;0.80;;;20.20;99.90;;;;;;5056224;28;20206;-62
2022/07/31 05:36:27;;;;;;;3.55;1.02;;;20.30;99.90;;;;;;5055665;28;20203;-62
2022/07/31 05:38:54;;;;;;;0.60;0.60;;;20.30;99.90;;;;;;5053736;28;20307;-61
2022/07/31 05:41:21;;;;;;;0.70;0.70;;;20.30;99.90;;;;;;5045637;28;20292;-64
2022/07/31 05:43:49;;;;;;;0.43;0.43;;;20.40;99.90;;;;;;5052278;28;20212;-63
2022/07/31 05:46:16;;;;;;;0.60;0.60;;;20.40;99.90;;;;;;5048229;28;20211;-63
2022/07/31 05:48:43;;;;;;;0.77;0.77;;;20.50;99.90;;;;;;5050603;28;20251;-63
2022/07/31 05:51:11;;;;;;;2.88;0.85;;;20.70;99.90;;;;;;5049769;28;20208;-60
2022/07/31 05:53:39;;;;;;;0.60;0.60;;;20.60;99.90;;;;;;5049492;28;20526;-67
2022/07/31 05:56:06;;;;;;;0.70;0.70;;;20.70;99.90;;;;;;5055605;28;20208;-66
2022/07/31 05:58:33;;;;;;;0.50;0.50;;;20.60;99.90;;;;;;5048403;28;20227;-67
2022/07/31 06:01:02;;;;;;;0.50;0.50;;;20.60;99.90;;;;;;5050079;28;20871;-65
2022/07/31 06:03:34;;;;;;;0.60;0.60;;;20.60;99.90;;;;;;5049720;28;20694;-67
2022/07/31 06:06:02;;;;;;;1.35;0.60;;;20.60;99.90;;;;;;5054661;28;20200;-68
2022/07/31 06:08:30;;;;;;;1.08;0.70;;;20.70;99.90;;;;;;5054384;28;20327;-66
2022/07/31 06:10:57;;;;;;;0.60;0.60;;;20.70;99.90;;;;;;5047899;28;20204;-65
2022/07/31 06:13:26;;;;;;;0.50;0.50;;;20.80;99.90;;;;;;5047010;28;20574;-65
2022/07/31 06:15:54;;;;;;;0.50;0.50;;;20.90;99.90;;;;;;5046689;28;20204;-66
2022/07/31 06:18:23;;;;;;;0.70;0.70;;;21.00;99.90;;;;;;5058460;28;20219;-66
2022/07/31 06:20:50;;;;;;;0.80;0.80;;;21.00;99.90;;;;;;5060533;28;20231;-67
2022/07/31 06:23:16;;;;;;;0.82;0.82;;;21.10;99.90;;;;;;5063407;28;20211;-67
2022/07/31 06:25:43;;;;;;;0.88;0.70;;;21.20;99.90;;;;;;5069270;28;20224;-67
2022/07/31 06:28:10;;;;;;;0.50;0.50;;;21.30;99.90;;;;;;5056775;28;20267;-66
2022/07/31 06:30:37;;;;;;;0.60;0.60;;;21.30;99.90;;;;;;5057184;28;20219;-66
2022/07/31 06:33:04;;;;;;;0.70;0.70;;;21.50;99.90;;;;;;5052714;28;20309;-67
2022/07/31 06:35:32;;;;;;;0.70;0.65;;;21.60;99.90;;;;;;5053844;28;20234;-65
2022/07/31 06:38:00;;;;;;;0.80;0.80;;;21.60;99.90;;;;;;5058219;28;20207;-65
2022/07/31 06:40:27;;;;;;;0.98;0.57;;;21.80;99.90;;;;;;5055324;28;20243;-66
2022/07/31 06:42:54;;;;;;;0.60;0.60;;;21.90;99.90;;;;;;5051265;28;20204;-66
2022/07/31 06:45:21;;;;;;;0.50;0.45;;;22.10;99.90;;;;;;5052772;28;20210;-65
2022/07/31 06:47:48;;;;;;;0.45;0.45;;;22.30;99.90;;;;;;5053343;28;20201;-65
2022/07/31 06:50:15;;;;;;;0.60;0.60;;;22.40;99.90;;;;;;5051717;28;20232;-64
2022/07/31 06:52:44;;;;;;;0.70;0.70;;;22.60;99.90;;;;;;5054392;28;20220;-65
2022/07/31 06:55:11;;;;;;;0.60;0.60;;;22.70;99.90;;;;;;5054190;28;20283;-65
2022/07/31 06:57:38;;;;;;;0.93;0.93;;;22.90;99.90;;;;;;5046856;28;20291;-66
2022/07/31 07:00:06;;;;;;;0.65;0.65;;;23.20;99.90;;;;;;5051139;28;20263;-64
2022/07/31 07:02:33;;;;;;;0.57;0.57;;;23.40;99.90;;;;;;5045171;28;20694;-65
2022/07/31 07:05:00;;;;;;;0.63;0.63;;;23.60;99.90;;;;;;5051179;28;20212;-65
2022/07/31 07:07:27;;;;;;;0.70;0.70;;;23.80;99.90;;;;;;5043555;28;20304;-64
2022/07/31 07:09:55;;;;;;;0.57;0.57;;;24.00;99.90;;;;;;5046857;28;20228;-63
2022/07/31 07:12:22;;;;;;;0.88;0.88;;;24.20;99.90;;;;;;5048889;28;20254;-66
2022/07/31 07:14:49;;;;;;;0.77;0.77;;;24.30;99.90;;;;;;5055941;28;20238;-66
2022/07/31 07:17:17;;;;;;;0.68;0.68;;;24.40;99.90;;;;;;5050120;28;20729;-65
2022/07/31 07:19:43;;;;;;;0.68;0.68;;;24.60;99.90;;;;;;5052764;28;20230;-68
2022/07/31 07:22:11;;;;;;;0.50;0.50;;;24.80;99.90;;;;;;5049797;28;20274;-66
2022/07/31 07:24:37;;;;;;;0.50;0.50;;;25.00;99.90;;;;;;5051435;28;20236;-66
2022/07/31 07:27:06;;;;;;;0.60;0.60;;;25.20;99.90;;;;;;5050126;28;20744;-65
2022/07/31 07:29:33;;;;;;;0.73;0.73;;;25.40;99.90;;;;;;5049247;28;20304;-66
2022/07/31 07:32:00;;;;;;;0.45;0.40;;;25.60;99.90;;;;;;5050696;28;20612;-67
2022/07/31 07:34:27;;;;;;;0.60;0.60;;;25.70;99.90;;;;;;5044048;28;20210;-66
2022/07/31 07:36:54;;;;;;;0.55;0.55;;;25.90;99.90;;;;;;5046912;28;20214;-66
2022/07/31 07:39:21;;;;;;;0.50;0.50;;;26.10;99.90;;;;;;5051405;28;20303;-66
2022/07/31 07:41:48;;;;;;;0.73;0.70;;;26.30;99.90;;;;;;5055867;28;20196;-68
2022/07/31 07:44:17;;;;;;;0.60;0.60;;;26.40;99.90;;;;;;5055883;28;20255;-66
2022/07/31 07:46:43;;;;;;;0.70;0.70;;;26.60;99.90;;;;;;5050136;28;20250;-68
2022/07/31 07:49:10;;;;;;;0.57;0.57;;;26.80;99.90;;;;;;5053834;28;20726;-67
2022/07/31 07:51:39;;;;;;;0.60;0.60;;;26.90;99.90;;;;;;5074563;22;20290;-62
2022/07/31 07:54:06;;;;;;;0.65;0.65;;;26.90;99.90;;;;;;5073435;28;20209;-62
2022/07/31 07:56:33;;;;;;;0.80;0.80;;;27.00;99.90;;;;;;5081671;28;20205;-60
2022/07/31 07:59:00;;;;;;;0.75;0.75;;;27.20;99.90;;;;;;5078496;28;20241;-62
2022/07/31 08:01:28;;;;;;;0.50;0.50;;;27.40;99.90;;;;;;5067676;28;20230;-62
2022/07/31 08:03:55;;;;;;;0.57;0.57;;;27.70;99.90;;;;;;5054593;28;20200;-61
2022/07/31 08:06:23;;;;;;;0.75;0.75;;;27.80;99.90;;;;;;5053117;28;20584;-60
2022/07/31 08:08:50;;;;;;;0.70;0.70;;;27.80;99.90;;;;;;5046419;28;20235;-60
2022/07/31 08:11:17;;;;;;;0.60;0.60;;;27.80;99.90;;;;;;5049061;28;20223;-62
2022/07/31 08:13:43;;;;;;;0.60;0.60;;;27.80;99.90;;;;;;5050744;28;20227;-61
2022/07/31 08:16:10;;;;;;;0.80;0.80;;;27.70;99.90;;;;;;5053804;28;20203;-62
2022/07/31 08:18:39;;;;;;;1.55;0.98;;;27.80;99.90;;;;;;5055049;28;20215;-62
2022/07/31 08:21:06;;;;;;;0.80;0.80;;;27.70;99.90;;;;;;5046364;28;20307;-61
2022/07/31 08:23:33;;;;;;;0.80;0.80;;;27.70;99.90;;;;;;5047431;28;20227;-60
2022/07/31 08:26:00;;;;;;;0.80;0.80;;;27.60;99.90;;;;;;5053825;28;20290;-62
2022/07/31 08:28:26;;;;;;;0.70;0.70;;;27.60;99.90;;;;;;5061986;28;20196;-62
2022/07/31 08:30:54;;;;;;;1.23;0.85;;;27.70;99.90;;;;;;5063603;28;20228;-62
2022/07/31 08:33:21;;;;;;;0.65;0.65;;;27.90;99.90;;;;;;5067263;28;20215;-61
2022/07/31 08:35:49;;;;;;;0.57;0.57;;;28.00;99.90;;;;;;5067681;28;20237;-61
2022/07/31 08:38:18;;;;;;;0.93;0.70;;;27.80;99.90;;;;;;5066905;28;20278;-61
2022/07/31 08:40:45;;;;;;;0.80;0.80;;;27.90;99.90;;;;;;5063802;28;20621;-61
2022/07/31 08:43:12;;;;;;;0.70;0.70;;;28.20;99.90;;;;;;5056036;28;20668;-61
2022/07/31 08:45:41;;;;;;;0.90;0.90;;;28.50;99.90;;;;;;5055225;28;20227;-61
2022/07/31 08:48:09;;;;;;;0.65;0.65;;;28.60;99.90;;;;;;5048054;28;20723;-61
2022/07/31 08:50:39;;;;;;;0.80;0.80;;;28.30;99.90;;;;;;5052247;28;20222;-62
2022/07/31 08:53:09;;;;;;;0.68;0.68;;;28.30;99.90;;;;;;5054441;28;20254;-60
2022/07/31 08:55:37;;;;;;;0.80;0.80;;;28.20;99.90;;;;;;5056873;28;20273;-63
2022/07/31 08:58:05;;;;;;;1.55;0.82;;;28.10;99.90;;;;;;5056842;28;20577;-62
2022/07/31 09:00:33;;;;;;;0.80;0.80;;;28.20;99.90;;;;;;5057011;28;20223;-61
2022/07/31 09:03:00;;;;;;;0.82;0.82;;;28.20;99.90;;;;;;5063920;28;20204;-60
2022/07/31 09:05:27;;;;;;;0.70;0.70;;;28.30;99.90;;;;;;5059734;28;20204;-61
2022/07/31 09:07:54;;;;;;;1.15;1.05;;;28.40;99.90;;;;;;5050651;28;20349;-60
2022/07/31 09:10:25;;;;;;;0.80;0.80;;;28.70;99.90;;;;;;5055225;28;20200;-62
2022/07/31 09:12:52;;;;;;;0.70;0.70;;;28.80;99.90;;;;;;5055633;28;20301;-61
2022/07/31 09:15:21;;;;;;;0.73;0.73;;;29.00;99.90;;;;;;5055947;28;20261;-61
2022/07/31 09:17:48;;;;;;;1.08;1.08;;;29.30;99.90;;;;;;5063068;28;20291;-61
2022/07/31 09:20:20;;;;;;;0.70;0.70;;;29.50;99.90;;;;;;5059348;28;20254;-61
2022/07/31 09:22:53;;;;;;;0.57;0.57;;;29.60;99.90;;;;;;5058359;28;20196;-61
2022/07/31 09:25:21;;;;;;;0.70;0.70;;;29.80;99.90;;;;;;5062571;28;20200;-60
2022/07/31 09:28:01;;;;;;;0.77;0.77;;;29.90;99.90;;;;;;5053446;28;20215;-61
2022/07/31 09:30:30;;;;;;;1.77;1.13;;;30.10;99.90;;;;;;5048507;28;20293;-60
2022/07/31 09:33:14;;;;;;;0.75;0.50;;;30.10;99.90;;;;;;5054840;28;20232;-61
2022/07/31 09:35:49;;;;;;;0.63;0.63;;;30.20;99.90;;;;;;5058389;28;20891;-62
2022/07/31 09:38:18;;;;;;;0.70;0.70;;;30.30;99.90;;;;;;5059206;28;20580;-62
2022/07/31 09:40:46;;;;;;;0.60;0.60;;;30.50;99.90;;;;;;5057348;28;20223;-62
2022/07/31 09:43:27;;;;;;;0.77;0.77;;;30.60;99.90;;;;;;5055349;28;20283;-61
2022/07/31 09:45:59;;;;;;;0.60;0.60;;;30.50;99.90;;;;;;5053735;28;20208;-60
2022/07/31 09:48:26;;;;;;;0.70;0.70;;;30.50;99.90;;;;;;5055473;28;20275;-62
2022/07/31 09:50:54;;;;;;;1.85;0.90;;;30.50;99.90;;;;;;5050350;28;20235;-62
2022/07/31 09:53:22;;;;;;;0.80;0.80;;;30.50;99.90;;;;;;5055589;28;20362;-61
2022/07/31 09:55:52;;;;;;;0.80;0.80;;;30.70;99.90;;;;;;5057646;28;20204;-60
2022/07/31 09:58:27;;;;;;;0.70;0.70;;;30.80;99.40;;;;;;5054747;28;20215;-61
2022/07/31 10:00:57;;;;;;;0.75;0.75;;;30.80;99.00;;;;;;5051923;28;20230;-61
2022/07/31 10:03:26;;;;;;;1.00;1.00;;;30.80;98.40;;;;;;5062793;28;20226;-58
2022/07/31 10:05:55;;;;;;;1.38;0.90;;;30.80;97.90;;;;;;5056178;28;20207;-61
2022/07/31 10:08:24;;;;;;;0.80;0.80;;;30.60;97.30;;;;;;5055297;28;20212;-59
2022/07/31 10:10:52;;;;;;;1.27;0.90;;;30.60;98.00;;;;;;5060846;28;20234;-59
2022/07/31 10:13:21;;;;;;;1.05;0.80;;;30.70;98.40;;;;;;5056002;28;20223;-62
2022/07/31 10:15:53;;;;;;;0.68;0.68;;;30.80;98.80;;;;;;5051397;28;20687;-61
2022/07/31 10:18:20;;;;;;;0.80;0.80;;;30.80;98.40;;;;;;5046784;28;20698;-62
2022/07/31 10:20:52;;;;;;;0.80;0.80;;;30.70;99.00;;;;;;5043589;28;20232;-61
2022/07/31 10:23:22;;;;;;;0.90;0.90;;;31.00;99.10;;;;;;5047205;28;20279;-63
2022/07/31 10:25:52;;;;;;;0.88;0.88;;;31.20;98.70;;;;;;5041654;28;20230;-63
2022/07/31 10:28:20;;;;;;;1.20;1.10;;;31.30;98.80;;;;;;5046124;28;20291;-64
2022/07/31 10:30:49;;;;;;;0.73;0.73;;;31.40;98.40;;;;;;5056206;28;20230;-63
2022/07/31 10:33:16;;;;;;;0.80;0.80;;;31.30;97.80;;;;;;5054557;28;20220;-62
2022/07/31 10:35:51;;;;;;;0.73;0.73;;;31.10;98.40;;;;;;5052451;28;20250;-64
2022/07/31 10:38:22;;;;;;;0.88;0.88;;;31.00;98.10;;;;;;5055685;28;20278;-63
2022/07/31 10:40:52;;;;;;;0.80;0.80;;;30.90;98.40;;;;;;5052973;28;20353;-62
2022/07/31 10:43:27;;;;;;;3.35;0.95;;;31.10;98.10;;;;;;5051258;28;20245;-61
2022/07/31 10:45:58;;;;;;;0.60;0.60;;;31.40;98.10;;;;;;5051906;28;20210;-63
2022/07/31 10:48:25;;;;;;;0.77;0.77;;;31.50;98.00;;;;;;5053673;28;20791;-63
2022/07/31 10:51:02;;;;;;;0.88;0.88;;;31.40;97.60;;;;;;5047287;28;20326;-62
2022/07/31 10:53:39;;;;;;;1.17;0.80;;;31.00;97.60;;;;;;5046834;28;20258;-63
2022/07/31 10:56:14;;;;;;;0.88;0.80;;;30.80;98.00;;;;;;5048255;28;20212;-63
2022/07/31 10:58:52;;;;;;;0.82;0.82;;;30.90;97.80;;;;;;5052391;28;20203;-61
2022/07/31 11:01:26;;;;;;;0.93;0.93;;;30.80;97.90;;;;;;5049961;28;20243;-64
2022/07/31 11:04:00;;;;;;;1.08;0.82;;;30.90;98.00;;;;;;5053697;28;20689;-63
2022/07/31 11:06:40;;;;;;;0.70;0.70;;;31.20;98.20;;;;;;5051789;28;20204;-63
2022/07/31 11:09:08;;;;;;;1.00;0.80;;;31.70;98.60;;;;;;5047722;28;20292;-62
2022/07/31 11:11:37;;;;;;;0.70;0.70;;;31.70;98.10;;;;;;5047441;28;20319;-63
2022/07/31 11:14:06;;;;;;;0.80;0.80;;;31.80;97.90;;;;;;5048170;28;20235;-61
2022/07/31 11:16:35;;;;;;;0.75;0.75;;;31.60;98.30;;;;;;5049846;28;20216;-64
2022/07/31 11:19:05;;;;;;;0.80;0.80;;;31.80;97.60;;;;;;5047123;28;20230;-64
2022/07/31 11:21:34;;;;;;;1.55;0.88;;;32.00;97.70;;;;;;5050474;28;20236;-63
2022/07/31 11:24:12;;;;;;;1.00;0.88;;;31.80;97.40;;;;;;5053413;28;20200;-62
2022/07/31 11:26:47;;;;;;;0.80;0.80;;;31.60;97.30;;;;;;5056115;28;20208;-63
2022/07/31 11:29:25;;;;;;;1.00;0.90;;;31.70;97.30;;;;;;5052307;28;20219;-62
2022/07/31 11:31:54;;;;;;;1.20;0.80;;;31.80;97.30;;;;;;5049241;28;20299;-62
2022/07/31 11:34:22;;;;;;;1.75;0.90;;;31.90;97.00;;;;;;5045169;28;20232;-63
2022/07/31 11:36:50;;;;;;;0.70;0.70;;;32.10;97.10;;;;;;5050008;28;20208;-63
2022/07/31 11:39:18;;;;;;;0.73;0.73;;;32.00;97.10;;;;;;5044714;28;20212;-65
2022/07/31 11:41:46;;;;;;;0.80;0.80;;;32.20;97.40;;;;;;5047260;28;20949;-64
2022/07/31 11:44:20;;;;;;;1.95;0.73;;;32.40;97.30;;;;;;5046223;28;20238;-63
2022/07/31 11:46:49;;;;;;;1.02;0.98;;;32.60;97.30;;;;;;5046280;28;20238;-63
2022/07/31 11:49:22;;;;;;;0.85;0.85;;;32.60;96.70;;;;;;5042271;28;20204;-65
2022/07/31 11:51:49;;;;;;;0.70;0.70;;;32.50;95.70;;;;;;5044906;28;20243;-62
2022/07/31 11:54:25;;;;;;;1.00;0.90;;;32.60;96.40;;;;;;5043350;28;20590;-64
2022/07/31 11:56:54;;;;;;;0.90;0.90;;;32.60;96.00;;;;;;5047117;28;20796;-64
2022/07/31 11:59:30;;;;;;;0.80;0.80;;;32.30;96.50;;;;;;5046129;28;20258;-64
2022/07/31 12:02:04;;;;;;;0.80;0.80;;;32.20;96.60;;;;;;5045214;28;20223;-62
2022/07/31 12:04:35;;;;;;;0.75;0.75;;;32.30;97.10;;;;;;5040049;28;20204;-64
2022/07/31 12:07:02;;;;;;;0.73;0.73;;;32.60;96.60;;;;;;5041946;28;20204;-65
2022/07/31 12:09:30;;;;;;;0.75;0.75;;;32.80;96.40;;;;;;5043105;28;20204;-65
2022/07/31 12:11:57;;;;;;;0.85;0.85;;;32.90;95.80;;;;;;5044056;28;20801;-64
2022/07/31 12:14:35;;;;;;;0.68;0.68;;;32.90;95.30;;;;;;5048683;28;20220;-63
2022/07/31 12:17:03;;;;;;;0.70;0.70;;;32.50;95.70;;;;;;5060894;28;20203;-63
2022/07/31 12:19:33;;;;;;;0.60;0.60;;;32.40;96.30;;;;;;5055262;28;20205;-63
2022/07/31 12:22:01;;;;;;;0.80;0.80;;;32.50;96.50;;;;;;5048290;28;20224;-64
2022/07/31 12:24:28;;;;;;;0.75;0.70;;;32.80;96.50;;;;;;5036967;28;20201;-63
2022/07/31 12:26:58;;;;;;;0.80;0.80;;;33.10;96.50;;;;;;5035089;28;20636;-64
2022/07/31 12:29:31;;;;;;;0.77;0.75;;;33.50;96.30;;;;;;5041225;28;20200;-63
2022/07/31 12:31:58;;;;;;;0.70;0.70;;;33.60;95.60;;;;;;5037064;28;20314;-63
2022/07/31 12:34:27;;;;;;;1.98;0.95;;;33.70;95.30;;;;;;5044085;28;20285;-64
2022/07/31 12:37:01;;;;;;;0.90;0.90;;;33.70;94.60;;;;;;5042156;28;20218;-63
2022/07/31 12:39:28;;;;;;;1.33;0.80;;;33.70;94.40;;;;;;5040039;28;20619;-64
2022/07/31 12:41:55;;;;;;;0.93;0.85;;;33.50;94.10;;;;;;5035484;28;20238;-64
2022/07/31 12:44:22;;;;;;;0.93;0.93;;;33.30;94.80;;;;;;5043515;28;20880;-63
2022/07/31 12:46:50;;;;;;;0.90;0.90;;;33.10;94.50;;;;;;5044126;28;20200;-64
2022/07/31 12:49:18;;;;;;;1.23;0.80;;;33.10;94.50;;;;;;5039829;28;20670;-65
2022/07/31 12:51:45;;;;;;;0.80;0.80;;;33.20;94.40;;;;;;5039561;28;20311;-64
2022/07/31 12:54:13;;;;;;;0.75;0.75;;;33.30;94.60;;;;;;5036784;28;20220;-63
2022/07/31 12:56:41;;;;;;;0.80;0.80;;;33.50;94.90;;;;;;5039237;28;20200;-63